createdAt,value
2018-08-13T00:02:07.246Z,1.80
2018-08-13T00:04:36.555Z,2.63
2018-08-13T00:07:05.897Z,1.80
2018-08-13T00:09:40.230Z,3.03
2018-08-13T00:12:09.993Z,2.30
2018-08-13T00:14:39.450Z,2.80
2018-08-13T00:17:09.059Z,4.53
2018-08-13T00:19:38.388Z,1.97
2018-08-13T00:22:07.738Z,1.83
2018-08-13T00:24:37.007Z,2.80
2018-08-13T00:27:06.340Z,1.90
2018-08-13T00:29:35.666Z,1.70
2018-08-13T00:32:04.965Z,1.90
2018-08-13T00:34:34.252Z,2.63
2018-08-13T00:37:03.519Z,2.17
2018-08-13T00:39:32.891Z,1.50
2018-08-13T00:42:02.313Z,3.40
2018-08-13T00:44:31.623Z,2.13
2018-08-13T00:47:00.903Z,2.20
2018-08-13T00:49:30.174Z,1.77
2018-08-13T00:51:59.444Z,1.83
2018-08-13T00:54:28.695Z,1.30
2018-08-13T00:56:57.992Z,2.53
2018-08-13T00:59:27.250Z,2.57
2018-08-13T01:01:56.535Z,3.90
2018-08-13T01:04:26.166Z,2.30
2018-08-13T01:06:55.462Z,1.60
2018-08-13T01:09:24.738Z,2.50
2018-08-13T01:11:53.987Z,4.50
2018-08-13T01:14:23.229Z,2.23
2018-08-13T01:16:52.528Z,3.13
2018-08-13T01:19:21.924Z,4.77
2018-08-13T01:21:51.351Z,2.23
2018-08-13T01:24:20.668Z,3.10
2018-08-13T01:26:49.878Z,2.33
2018-08-13T01:29:19.174Z,1.93
2018-08-13T01:31:48.456Z,2.70
2018-08-13T01:34:17.795Z,2.83
2018-08-13T01:36:47.191Z,2.77
2018-08-13T01:39:16.443Z,5.13
2018-08-13T01:41:45.766Z,2.23
2018-08-13T01:44:14.968Z,2.57
2018-08-13T01:46:44.204Z,2.80
2018-08-13T01:49:13.566Z,2.57
2018-08-13T01:51:42.775Z,2.00
2018-08-13T01:54:12.403Z,2.97
2018-08-13T01:56:41.636Z,2.60
2018-08-13T01:59:10.895Z,2.40
2018-08-13T02:01:40.219Z,3.63
2018-08-13T02:04:09.526Z,4.00
2018-08-13T02:06:38.892Z,2.57
2018-08-13T02:09:10.958Z,2.13
2018-08-13T02:11:40.242Z,2.07
2018-08-13T02:14:09.675Z,2.60
2018-08-13T02:16:39.026Z,2.60
2018-08-13T02:19:08.493Z,1.67
2018-08-13T02:21:37.796Z,3.20
2018-08-13T02:24:07.183Z,1.93
2018-08-13T02:26:37.460Z,2.47
2018-08-13T02:29:06.778Z,5.17
2018-08-13T02:31:36.071Z,2.07
2018-08-13T02:34:05.461Z,3.23
2018-08-13T02:36:34.791Z,2.17
2018-08-13T02:39:04.851Z,3.47
2018-08-13T02:41:34.177Z,3.63
2018-08-13T02:44:03.518Z,2.23
2018-08-13T02:46:33.155Z,3.30
2018-08-13T02:49:02.495Z,5.93
2018-08-13T02:51:33.099Z,1.60
2018-08-13T02:54:02.943Z,3.30
2018-08-13T02:56:32.231Z,3.10
2018-08-13T02:59:01.511Z,2.80
2018-08-13T03:01:31.986Z,4.60
2018-08-13T03:04:01.298Z,2.60
2018-08-13T03:06:30.575Z,2.73
2018-08-13T03:08:59.808Z,3.60
2018-08-13T03:11:29.127Z,2.17
2018-08-13T03:13:58.425Z,2.37
2018-08-13T03:16:27.696Z,2.47
2018-08-13T03:18:57.011Z,2.10
2018-08-13T03:21:26.368Z,4.07
2018-08-13T03:23:55.720Z,2.60
2018-08-13T03:26:25.023Z,3.57
2018-08-13T03:28:54.359Z,3.07
2018-08-13T03:31:23.715Z,6.30
2018-08-13T03:33:54.190Z,3.27
2018-08-13T03:36:23.900Z,2.33
2018-08-13T03:38:53.288Z,2.50
2018-08-13T03:41:22.608Z,4.57
2018-08-13T03:43:51.898Z,2.67
2018-08-13T03:46:21.218Z,3.37
2018-08-13T03:48:50.504Z,2.50
2018-08-13T03:51:19.818Z,2.87
2018-08-13T03:53:51.166Z,2.37
2018-08-13T03:56:20.832Z,3.40
2018-08-13T03:58:50.130Z,4.50
2018-08-13T04:01:19.360Z,3.43
2018-08-13T04:03:48.953Z,3.53
2018-08-13T04:06:18.168Z,2.27
2018-08-13T04:08:47.902Z,2.67
2018-08-13T04:11:17.370Z,3.53
2018-08-13T04:13:46.671Z,3.33
2018-08-13T04:16:15.946Z,3.47
2018-08-13T04:18:45.281Z,3.87
2018-08-13T04:21:14.646Z,5.37
2018-08-13T04:23:43.887Z,2.50
2018-08-13T04:26:13.178Z,1.97
2018-08-13T04:28:42.439Z,2.60
2018-08-13T04:31:11.680Z,3.23
2018-08-13T04:33:40.990Z,3.03
2018-08-13T04:36:10.601Z,6.23
2018-08-13T04:38:39.843Z,3.77
2018-08-13T04:41:09.398Z,2.97
2018-08-13T04:43:38.741Z,4.00
2018-08-13T04:46:08.380Z,2.63
2018-08-13T04:48:37.754Z,5.77
2018-08-13T04:51:07.137Z,3.97
2018-08-13T04:53:36.398Z,3.43
2018-08-13T04:56:05.737Z,1.63
2018-08-13T04:58:35.008Z,3.07
2018-08-13T05:01:04.840Z,2.50
2018-08-13T05:03:34.347Z,3.47
2018-08-13T05:06:03.643Z,3.13
2018-08-13T05:08:32.942Z,3.20
2018-08-13T05:11:02.292Z,2.80
2018-08-13T05:13:32.809Z,3.33
2018-08-13T05:16:02.292Z,3.13
2018-08-13T05:18:31.535Z,4.27
2018-08-13T05:21:00.920Z,4.00
2018-08-13T05:23:30.253Z,3.70
2018-08-13T05:25:59.632Z,4.80
2018-08-13T05:28:29.062Z,4.50
2018-08-13T05:30:58.379Z,3.60
2018-08-13T05:33:27.626Z,2.77
2018-08-13T05:35:56.887Z,6.00
2018-08-13T05:38:26.695Z,5.17
2018-08-13T05:40:55.992Z,3.07
2018-08-13T05:43:25.394Z,2.67
2018-08-13T05:45:54.755Z,2.93
2018-08-13T05:48:25.107Z,2.50
2018-08-13T05:50:54.363Z,2.77
2018-08-13T05:53:24.116Z,3.63
2018-08-13T05:55:53.368Z,4.90
2018-08-13T05:58:22.701Z,4.60
2018-08-13T06:00:52.124Z,3.63
2018-08-13T06:03:21.479Z,7.90
2018-08-13T06:05:50.874Z,4.80
2018-08-13T06:08:20.217Z,3.73
2018-08-13T06:10:49.547Z,3.13
2018-08-13T06:13:19.093Z,2.47
2018-08-13T06:15:48.704Z,2.20
2018-08-13T06:18:18.020Z,3.27
2018-08-13T06:20:47.282Z,3.70
2018-08-13T06:23:16.576Z,3.67
2018-08-13T06:25:45.857Z,2.90
2018-08-13T06:28:15.226Z,3.87
2018-08-13T06:30:44.431Z,5.43
2018-08-13T06:33:14.158Z,3.67
2018-08-13T06:35:43.497Z,4.87
2018-08-13T06:38:12.931Z,3.73
2018-08-13T06:40:42.399Z,3.67
2018-08-13T06:43:11.686Z,5.87
2018-08-13T06:45:42.133Z,2.20
2018-08-13T06:48:11.383Z,4.03
2018-08-13T06:50:41.190Z,3.07
2018-08-13T06:53:11.603Z,4.10
2018-08-13T06:55:41.022Z,3.30
2018-08-13T06:58:10.307Z,3.10
2018-08-13T07:00:39.719Z,3.40
2018-08-13T07:03:09.639Z,2.63
2018-08-13T07:05:38.964Z,3.57
2018-08-13T07:08:08.342Z,2.87
2018-08-13T07:10:37.661Z,3.83
2018-08-13T07:13:07.285Z,5.20
2018-08-13T07:15:36.596Z,3.83
2018-08-13T07:18:06.193Z,5.60
2018-08-13T07:20:35.694Z,5.70
2018-08-13T07:23:05.182Z,4.03
2018-08-13T07:25:34.839Z,6.53
2018-08-13T07:28:04.388Z,4.10
2018-08-13T07:30:33.741Z,4.07
2018-08-13T07:33:03.179Z,4.90
2018-08-13T07:35:32.498Z,4.03
2018-08-13T07:38:01.861Z,4.40
2018-08-13T07:40:31.189Z,3.87
2018-08-13T07:43:00.491Z,4.47
2018-08-13T07:45:29.878Z,2.97
2018-08-13T07:47:59.129Z,2.93
2018-08-13T07:50:28.507Z,3.67
2018-08-13T07:52:57.863Z,2.70
2018-08-13T07:55:27.126Z,2.47
2018-08-13T07:57:56.445Z,2.33
2018-08-13T08:00:25.838Z,3.90
2018-08-13T08:02:55.116Z,4.07
2018-08-13T08:05:24.406Z,7.63
2018-08-13T08:07:53.704Z,3.10
2018-08-13T08:10:23.158Z,6.47
2018-08-13T08:12:52.588Z,3.00
2018-08-13T08:15:22.966Z,4.63
2018-08-13T08:17:52.423Z,3.67
2018-08-13T08:20:21.851Z,2.93
2018-08-13T08:22:51.394Z,9.60
2018-08-13T08:25:23.048Z,3.50
2018-08-13T08:27:52.412Z,5.33
2018-08-13T08:30:21.713Z,5.20
2018-08-13T08:32:51.081Z,3.77
2018-08-13T08:35:20.441Z,3.00
2018-08-13T08:37:49.798Z,3.37
2018-08-13T08:40:20.918Z,5.10
2018-08-13T08:42:50.941Z,6.53
2018-08-13T08:45:24.180Z,7.13
2018-08-13T08:47:54.540Z,3.03
2018-08-13T08:50:24.366Z,4.17
2018-08-13T08:52:53.758Z,4.03
2018-08-13T08:55:23.257Z,3.63
2018-08-13T08:57:52.494Z,5.97
2018-08-13T09:00:23.674Z,3.43
2018-08-13T09:02:53.136Z,5.33
2018-08-13T09:05:22.470Z,4.07
2018-08-13T09:07:51.886Z,2.53
2018-08-13T09:10:21.245Z,4.67
2018-08-13T09:12:50.560Z,3.17
2018-08-13T09:15:19.820Z,6.97
2018-08-13T09:18:06.010Z,3.83
2018-08-13T09:20:52.190Z,3.43
2018-08-13T09:23:38.607Z,9.53
2018-08-13T09:26:24.725Z,4.37
2018-08-13T09:29:10.838Z,4.17
2018-08-13T09:32:29.244Z,4.80
2018-08-13T09:35:12.467Z,6.30
2018-08-13T09:37:41.886Z,4.97
2018-08-13T09:40:12.160Z,5.07
2018-08-13T09:42:41.430Z,7.87
2018-08-13T09:45:16.701Z,5.40
2018-08-13T09:47:45.942Z,3.33
2018-08-13T09:50:16.811Z,5.53
2018-08-13T09:52:46.614Z,6.53
2018-08-13T09:55:17.736Z,5.50
2018-08-13T09:57:47.835Z,7.10
2018-08-13T10:00:24.747Z,4.20
2018-08-13T10:02:55.513Z,4.97
2018-08-13T10:05:24.830Z,5.27
2018-08-13T10:07:54.102Z,4.40
2018-08-13T10:10:23.463Z,4.27
2018-08-13T10:12:52.798Z,4.53
2018-08-13T10:15:22.269Z,4.40
2018-08-13T10:17:51.610Z,5.47
2018-08-13T10:20:22.023Z,7.63
2018-08-13T10:22:51.344Z,6.50
2018-08-13T10:25:20.596Z,4.20
2018-08-13T10:27:49.908Z,4.03
2018-08-13T10:30:19.159Z,4.33
2018-08-13T10:32:49.662Z,3.50
2018-08-13T10:35:18.870Z,4.27
2018-08-13T10:37:48.249Z,2.87
2018-08-13T10:40:19.273Z,2.97
2018-08-13T10:42:49.025Z,3.23
2018-08-13T10:45:18.535Z,5.10
2018-08-13T10:47:54.453Z,3.83
2018-08-13T10:50:23.722Z,4.27
2018-08-13T10:52:53.004Z,4.33
2018-08-13T10:55:26.750Z,3.37
2018-08-13T10:57:56.052Z,3.93
2018-08-13T11:00:25.358Z,3.43
2018-08-13T11:02:54.782Z,2.30
2018-08-13T11:05:24.043Z,4.53
2018-08-13T11:07:53.370Z,3.10
2018-08-13T11:10:22.989Z,2.20
2018-08-13T11:12:52.179Z,3.53
2018-08-13T11:15:21.465Z,2.27
2018-08-13T11:17:50.825Z,2.17
2018-08-13T11:20:20.150Z,3.60
2018-08-13T11:22:49.450Z,3.93
2018-08-13T11:25:18.846Z,2.13
2018-08-13T11:27:49.251Z,3.13
2018-08-13T11:30:18.511Z,2.40
2018-08-13T11:32:47.775Z,2.37
2018-08-13T11:35:17.558Z,2.27
2018-08-13T11:37:48.891Z,3.93
2018-08-13T11:40:18.920Z,2.83
2018-08-13T11:42:48.194Z,2.87
2018-08-13T11:45:17.463Z,3.63
2018-08-13T11:47:46.883Z,2.13
2018-08-13T11:50:19.811Z,3.57
2018-08-13T11:52:50.945Z,3.40
2018-08-13T11:55:21.150Z,1.97
2018-08-13T11:57:51.159Z,2.63
2018-08-13T12:00:20.690Z,3.30
2018-08-13T12:02:50.051Z,3.67
2018-08-13T12:05:19.566Z,2.50
2018-08-13T12:07:48.990Z,2.77
2018-08-13T12:10:18.300Z,4.90
2018-08-13T12:12:47.728Z,2.27
2018-08-13T12:15:17.066Z,1.67
2018-08-13T12:17:46.403Z,6.27
2018-08-13T12:20:19.287Z,2.00
2018-08-13T12:22:48.860Z,4.20
2018-08-13T12:25:25.359Z,3.47
2018-08-13T12:27:55.049Z,2.13
2018-08-13T12:30:24.391Z,3.60
2018-08-13T12:32:57.271Z,2.73
2018-08-13T12:35:26.615Z,1.10
2018-08-13T12:37:55.938Z,1.40
2018-08-13T12:40:25.372Z,1.13
2018-08-13T12:42:56.400Z,1.20
2018-08-13T12:45:25.748Z,1.57
2018-08-13T12:47:55.182Z,3.50
2018-08-13T12:50:24.688Z,2.10
2018-08-13T12:52:54.159Z,1.73
2018-08-13T12:55:23.533Z,1.77
2018-08-13T12:57:52.790Z,1.63
2018-08-13T13:00:22.159Z,1.27
2018-08-13T13:02:51.481Z,1.47
2018-08-13T13:05:20.818Z,2.03
2018-08-13T13:07:51.290Z,5.83
2018-08-13T13:10:20.618Z,1.23
2018-08-13T13:12:49.940Z,1.37
2018-08-13T13:15:20.575Z,3.47
2018-08-13T13:17:49.983Z,2.13
2018-08-13T13:20:21.593Z,1.20
2018-08-13T13:22:51.375Z,2.33
2018-08-13T13:25:22.494Z,2.03
2018-08-13T13:27:52.429Z,2.07
2018-08-13T13:30:24.856Z,4.00
2018-08-13T13:32:54.160Z,3.03
2018-08-13T13:35:23.471Z,1.87
2018-08-13T13:37:52.872Z,2.23
2018-08-13T13:40:22.219Z,2.77
2018-08-13T13:42:51.600Z,1.90
2018-08-13T13:45:20.925Z,2.47
2018-08-13T13:47:50.586Z,1.53
2018-08-13T13:50:21.009Z,3.20
2018-08-13T13:52:50.792Z,4.17
2018-08-13T13:55:20.179Z,2.70
2018-08-13T13:57:49.514Z,3.47
2018-08-13T14:00:20.728Z,3.70
2018-08-13T14:02:51.515Z,4.43
2018-08-13T14:05:21.224Z,2.27
2018-08-13T14:07:50.705Z,2.10
2018-08-13T14:10:23.823Z,3.20
2018-08-13T14:12:55.586Z,5.03
2018-08-13T14:15:25.364Z,3.77
2018-08-13T14:17:54.657Z,1.27
2018-08-13T14:20:24.003Z,3.67
2018-08-13T14:22:53.296Z,8.73
2018-08-13T14:25:22.738Z,1.37
2018-08-13T14:27:52.139Z,1.73
2018-08-13T14:30:24.322Z,3.63
2018-08-13T14:32:53.702Z,1.97
2018-08-13T14:35:24.287Z,2.57
2018-08-13T14:37:53.990Z,3.00
2018-08-13T14:40:23.326Z,2.77
2018-08-13T14:42:52.680Z,1.30
2018-08-13T14:45:22.127Z,1.83
2018-08-13T14:47:52.214Z,1.77
2018-08-13T14:50:21.660Z,2.70
2018-08-13T14:52:50.897Z,1.23
2018-08-13T14:55:21.887Z,6.17
2018-08-13T14:57:51.169Z,1.00
2018-08-13T15:00:30.486Z,3.30
2018-08-13T15:02:59.831Z,4.40
2018-08-13T15:05:29.249Z,2.80
2018-08-13T15:07:59.274Z,2.40
2018-08-13T15:10:28.747Z,3.13
2018-08-13T15:12:58.002Z,5.37
2018-08-13T15:15:27.287Z,3.07
2018-08-13T15:17:56.611Z,3.60
2018-08-13T15:20:29.062Z,2.87
2018-08-13T15:22:58.451Z,1.63
2018-08-13T15:25:28.240Z,1.00
2018-08-13T15:27:57.767Z,1.63
2018-08-13T15:30:27.975Z,1.43
2018-08-13T15:32:57.327Z,7.57
2018-08-13T15:35:26.663Z,1.67
2018-08-13T15:37:57.019Z,1.47
2018-08-13T15:40:26.334Z,1.50
2018-08-13T15:42:55.658Z,1.87
2018-08-13T15:45:25.550Z,0.90
2018-08-13T15:47:55.103Z,1.10
2018-08-13T15:50:25.077Z,1.97
2018-08-13T15:52:54.423Z,1.63
2018-08-13T15:55:23.755Z,1.33
2018-08-13T15:57:53.910Z,1.57
2018-08-13T16:00:25.270Z,1.40
2018-08-13T16:02:54.966Z,1.90
2018-08-13T16:05:24.282Z,2.57
2018-08-13T16:07:53.903Z,1.60
2018-08-13T16:10:23.271Z,0.93
2018-08-13T16:12:55.335Z,1.40
2018-08-13T16:15:25.614Z,1.60
2018-08-13T16:17:54.937Z,3.90
2018-08-13T16:20:24.242Z,2.80
2018-08-13T16:22:53.519Z,1.37
2018-08-13T16:25:23.872Z,2.63
2018-08-13T16:27:54.262Z,2.07
2018-08-13T16:30:28.775Z,1.33
2018-08-13T16:32:58.232Z,2.93
2018-08-13T16:35:28.596Z,4.60
2018-08-13T16:37:58.431Z,2.60
2018-08-13T16:40:28.273Z,1.70
2018-08-13T16:42:57.516Z,2.30
2018-08-13T16:45:26.811Z,1.63
2018-08-13T16:47:56.113Z,2.20
2018-08-13T16:50:29.193Z,3.43
2018-08-13T16:52:58.966Z,2.47
2018-08-13T16:55:30.511Z,2.60
2018-08-13T16:58:02.765Z,2.67
2018-08-13T17:00:33.412Z,3.57
2018-08-13T17:03:02.688Z,4.37
2018-08-13T17:05:34.494Z,3.13
2018-08-13T17:08:04.126Z,4.30
2018-08-13T17:10:33.430Z,4.63
2018-08-13T17:13:02.719Z,3.70
2018-08-13T17:15:32.770Z,4.60
2018-08-13T17:18:03.343Z,3.20
2018-08-13T17:20:36.448Z,4.97
2018-08-13T17:23:05.899Z,4.40
2018-08-13T17:25:35.204Z,4.30
2018-08-13T17:28:04.722Z,3.00
2018-08-13T17:30:34.025Z,3.93
2018-08-13T17:33:03.340Z,3.20
2018-08-13T17:35:34.622Z,4.67
2018-08-13T17:38:06.563Z,4.20
2018-08-13T17:40:35.867Z,4.13
2018-08-13T17:43:06.593Z,5.10
2018-08-13T17:45:36.602Z,5.10
2018-08-13T17:48:08.449Z,7.90
2018-08-13T17:50:37.891Z,5.67
2018-08-13T17:53:09.019Z,7.93
2018-08-13T17:55:38.422Z,6.10
2018-08-13T17:58:07.759Z,6.70
2018-08-13T18:00:37.049Z,5.87
2018-08-13T18:03:06.838Z,12.87
2018-08-13T18:05:36.228Z,5.70
2018-08-13T18:08:05.655Z,6.40
2018-08-13T18:10:35.454Z,5.83
2018-08-13T18:13:07.423Z,6.10
2018-08-13T18:15:36.690Z,5.77
2018-08-13T18:18:06.494Z,5.00
2018-08-13T18:20:35.755Z,4.70
2018-08-13T18:23:05.039Z,4.80
2018-08-13T18:25:34.348Z,5.07
2018-08-13T18:28:03.643Z,6.53
2018-08-13T18:30:32.927Z,4.57
2018-08-13T18:33:02.367Z,4.63
2018-08-13T18:35:31.704Z,5.97
2018-08-13T18:38:00.980Z,4.67
2018-08-13T18:40:32.862Z,4.70
2018-08-13T18:43:02.250Z,6.00
2018-08-13T18:45:31.570Z,4.77
2018-08-13T18:48:01.233Z,4.50
2018-08-13T18:50:30.534Z,4.20
2018-08-13T18:52:59.803Z,4.60
2018-08-13T18:55:30.159Z,4.40
2018-08-13T18:57:59.499Z,4.60
2018-08-13T19:00:32.799Z,4.33
2018-08-13T19:03:02.999Z,4.70
2018-08-13T19:05:33.930Z,4.30
2018-08-13T19:08:03.276Z,6.57
2018-08-13T19:10:32.567Z,6.73
2018-08-13T19:13:01.912Z,5.30
2018-08-13T19:15:31.203Z,5.40
2018-08-13T19:18:00.419Z,5.57
2018-08-13T19:20:29.768Z,6.97
2018-08-13T19:22:59.112Z,7.07
2018-08-13T19:25:29.020Z,6.40
2018-08-13T19:27:58.484Z,7.07
2018-08-13T19:30:28.122Z,7.23
2018-08-13T19:33:00.235Z,8.30
2018-08-13T19:35:29.703Z,8.00
2018-08-13T19:37:58.999Z,8.87
2018-08-13T19:40:28.262Z,8.40
2018-08-13T19:42:57.540Z,11.70
2018-08-13T19:45:26.814Z,8.60
2018-08-13T19:47:56.199Z,8.87
2018-08-13T19:50:25.553Z,9.70
2018-08-13T19:52:55.202Z,10.80
2018-08-13T19:55:24.496Z,11.20
2018-08-13T19:57:53.784Z,12.40
2018-08-13T20:00:25.802Z,11.27
2018-08-13T20:02:55.580Z,12.73
2018-08-13T20:05:26.256Z,16.27
2018-08-13T20:07:57.593Z,11.63
2018-08-13T20:10:27.898Z,12.07
2018-08-13T20:12:57.241Z,18.10
2018-08-13T20:15:26.510Z,11.07
2018-08-13T20:17:55.790Z,13.97
2018-08-13T20:20:25.059Z,12.40
2018-08-13T20:22:54.358Z,12.43
2018-08-13T20:25:23.746Z,12.10
2018-08-13T20:27:53.562Z,14.80
2018-08-13T20:30:23.540Z,16.17
2018-08-13T20:32:53.722Z,13.67
2018-08-13T20:35:23.008Z,15.03
2018-08-13T20:37:52.275Z,19.43
2018-08-13T20:40:21.963Z,16.70
2018-08-13T20:42:51.433Z,14.60
2018-08-13T20:45:21.822Z,15.43
2018-08-13T20:47:51.708Z,12.10
2018-08-13T20:50:22.574Z,15.47
2018-08-13T20:52:54.166Z,17.77
2018-08-13T20:55:25.851Z,13.30
2018-08-13T20:57:55.539Z,13.90
2018-08-13T21:00:26.402Z,14.43
2018-08-13T21:02:55.759Z,13.50
2018-08-13T21:05:25.088Z,14.90
2018-08-13T21:07:54.402Z,12.20
2018-08-13T21:10:25.259Z,11.90
2018-08-13T21:12:54.612Z,13.07
2018-08-13T21:15:23.930Z,11.57
2018-08-13T21:17:53.244Z,13.90
2018-08-13T21:20:25.999Z,12.30
2018-08-13T21:22:55.568Z,14.73
2018-08-13T21:25:24.948Z,13.27
2018-08-13T21:27:54.262Z,13.60
2018-08-13T21:30:23.554Z,16.03
2018-08-13T21:32:52.924Z,14.10
2018-08-13T21:35:24.271Z,13.97
2018-08-13T21:37:53.666Z,14.43
2018-08-13T21:40:23.067Z,17.37
2018-08-13T21:42:52.521Z,13.97
2018-08-13T21:45:21.881Z,13.40
2018-08-13T21:47:51.158Z,14.43
2018-08-13T21:50:22.126Z,15.03
2018-08-13T21:52:52.114Z,18.50
2018-08-13T21:55:21.398Z,14.10
2018-08-13T21:57:50.691Z,18.37
2018-08-13T22:00:28.181Z,14.30
2018-08-13T22:03:00.676Z,14.77
2018-08-13T22:05:30.024Z,14.83
2018-08-13T22:07:59.414Z,19.33
2018-08-13T22:10:28.803Z,13.57
2018-08-13T22:12:58.566Z,15.17
2018-08-13T22:15:29.667Z,16.90
2018-08-13T22:18:00.578Z,17.80
2018-08-13T22:20:31.300Z,15.13
2018-08-13T22:23:01.671Z,19.67
2018-08-13T22:25:35.308Z,15.07
2018-08-13T22:28:05.271Z,18.47
2018-08-13T22:30:35.182Z,15.23
2018-08-13T22:33:04.831Z,14.73
2018-08-13T22:35:34.115Z,14.77
2018-08-13T22:38:03.453Z,19.10
2018-08-13T22:40:32.765Z,15.27
2018-08-13T22:43:02.575Z,18.70
2018-08-13T22:45:31.766Z,15.73
2018-08-13T22:48:01.106Z,18.90
2018-08-13T22:50:30.395Z,14.73
2018-08-13T22:53:00.236Z,15.87
2018-08-13T22:55:29.644Z,19.23
2018-08-13T22:57:58.928Z,14.63
2018-08-13T23:00:28.322Z,13.80
2018-08-13T23:02:57.683Z,15.67
2018-08-13T23:05:27.747Z,19.00
2018-08-13T23:07:57.040Z,14.37
2018-08-13T23:10:26.467Z,19.00
2018-08-13T23:12:57.012Z,16.03
2018-08-13T23:15:26.404Z,13.20
2018-08-13T23:17:55.779Z,13.07
2018-08-13T23:20:27.691Z,13.73
2018-08-13T23:23:00.019Z,15.53
2018-08-13T23:25:29.982Z,13.70
2018-08-13T23:28:00.485Z,13.00
2018-08-13T23:30:30.176Z,17.30
2018-08-13T23:33:00.343Z,13.77
2018-08-13T23:35:30.425Z,16.63
2018-08-13T23:37:59.844Z,13.00
2018-08-13T23:40:29.515Z,16.60
2018-08-13T23:42:58.891Z,12.53
2018-08-13T23:45:30.870Z,16.77
2018-08-13T23:48:00.351Z,13.00
2018-08-13T23:50:29.972Z,18.03
2018-08-13T23:53:00.810Z,14.57
2018-08-13T23:55:34.615Z,16.70
2018-08-13T23:58:06.704Z,13.27
